createdAt,value
2023-01-19T00:00:30.097Z,2.30
2023-01-19T00:02:56.579Z,2.32
2023-01-19T00:05:22.966Z,2.32
2023-01-19T00:07:49.344Z,2.36
2023-01-19T00:10:16.099Z,2.41
2023-01-19T00:12:42.491Z,2.43
2023-01-19T00:15:09.473Z,2.45
2023-01-19T00:17:35.970Z,2.46
2023-01-19T00:20:03.828Z,2.46
2023-01-19T00:22:30.213Z,2.43
2023-01-19T00:24:56.562Z,2.42
2023-01-19T00:27:23.367Z,2.44
2023-01-19T00:29:49.798Z,2.47
2023-01-19T00:32:17.849Z,2.45
2023-01-19T00:34:49.480Z,2.39
2023-01-19T00:37:17.128Z,2.25
2023-01-19T00:39:43.830Z,2.13
2023-01-19T00:42:32.124Z,2.05
2023-01-19T00:44:58.485Z,2.00
2023-01-19T00:47:25.291Z,1.96
2023-01-19T00:49:52.773Z,1.95
2023-01-19T00:52:19.607Z,1.94
2023-01-19T00:54:46.174Z,1.96
2023-01-19T00:57:12.707Z,1.98
2023-01-19T00:59:39.105Z,1.98
2023-01-19T01:02:05.592Z,2.01
2023-01-19T01:04:32.410Z,2.05
2023-01-19T01:06:58.799Z,2.09
2023-01-19T01:09:25.252Z,2.13
2023-01-19T01:11:51.601Z,2.16
2023-01-19T01:14:18.196Z,2.16
2023-01-19T01:16:44.809Z,2.19
2023-01-19T01:19:11.209Z,2.17
2023-01-19T01:21:37.617Z,2.16
2023-01-19T01:24:04.608Z,2.16
2023-01-19T01:26:30.978Z,2.13
2023-01-19T01:28:57.343Z,2.12
2023-01-19T01:31:23.968Z,2.09
2023-01-19T01:33:50.446Z,2.05
2023-01-19T01:36:18.960Z,2.03
2023-01-19T01:38:45.487Z,2.02
2023-01-19T01:41:12.215Z,2.04
2023-01-19T01:43:50.299Z,2.03
2023-01-19T01:46:18.138Z,2.04
2023-01-19T01:49:00.880Z,2.07
2023-01-19T01:51:40.744Z,2.08
2023-01-19T01:54:33.512Z,2.12
2023-01-19T01:57:06.538Z,2.11
2023-01-19T01:59:39.206Z,2.10
2023-01-19T02:02:27.807Z,2.12
2023-01-19T02:04:57.742Z,2.16
2023-01-19T02:07:51.818Z,2.20
2023-01-19T02:10:37.168Z,2.25
2023-01-19T02:13:21.812Z,2.25
2023-01-19T02:15:56.006Z,2.27
2023-01-19T02:18:24.751Z,2.29
2023-01-19T02:20:58.912Z,2.31
2023-01-19T02:23:46.151Z,2.33
2023-01-19T02:26:20.196Z,2.35
2023-01-19T02:28:52.667Z,2.38
2023-01-19T02:31:19.721Z,2.42
2023-01-19T02:33:46.274Z,2.41
2023-01-19T02:36:15.170Z,2.44
2023-01-19T02:38:43.924Z,2.46
2023-01-19T02:41:13.093Z,2.51
2023-01-19T02:43:41.839Z,2.54
2023-01-19T02:46:08.757Z,2.59
2023-01-19T02:48:35.972Z,2.64
2023-01-19T02:51:09.286Z,2.69
2023-01-19T02:53:48.407Z,2.69
2023-01-19T02:56:49.856Z,2.71
2023-01-19T02:59:19.159Z,2.72
2023-01-19T03:02:19.425Z,2.72
2023-01-19T03:05:00.708Z,2.76
2023-01-19T03:08:05.003Z,2.78
2023-01-19T03:10:57.834Z,2.77
2023-01-19T03:13:41.812Z,2.79
2023-01-19T03:16:48.703Z,2.79
2023-01-19T03:19:23.750Z,2.80
2023-01-19T03:21:57.836Z,2.81
2023-01-19T03:24:28.845Z,2.80
2023-01-19T03:27:09.280Z,2.82
2023-01-19T03:29:38.966Z,2.82
2023-01-19T03:32:13.087Z,2.81
2023-01-19T03:34:41.901Z,2.83
2023-01-19T03:37:11.379Z,2.83
2023-01-19T03:39:37.859Z,2.84
2023-01-19T03:42:08.323Z,2.86
2023-01-19T03:44:37.794Z,2.87
2023-01-19T03:47:07.248Z,2.86
2023-01-19T03:49:35.089Z,2.85
2023-01-19T03:52:01.485Z,2.84
2023-01-19T03:54:28.278Z,2.83
2023-01-19T03:56:54.705Z,2.83
2023-01-19T03:59:21.854Z,2.83
2023-01-19T04:01:48.620Z,2.80
2023-01-19T04:04:15.555Z,2.78
2023-01-19T04:06:42.560Z,2.75
2023-01-19T04:09:08.921Z,2.72
2023-01-19T04:11:35.392Z,2.67
2023-01-19T04:14:01.780Z,2.65
2023-01-19T04:16:29.079Z,2.61
2023-01-19T04:18:55.672Z,2.56
2023-01-19T04:21:22.022Z,2.55
2023-01-19T04:23:49.897Z,2.50
2023-01-19T04:26:16.504Z,2.47
2023-01-19T04:28:42.862Z,2.47
2023-01-19T04:31:09.255Z,2.41
2023-01-19T04:33:35.674Z,2.40
2023-01-19T04:36:04.215Z,2.40
2023-01-19T04:38:30.767Z,2.38
2023-01-19T04:40:57.118Z,2.36
2023-01-19T04:43:24.079Z,2.36
2023-01-19T04:45:50.591Z,2.36
2023-01-19T04:48:18.483Z,2.37
2023-01-19T04:50:45.114Z,2.34
2023-01-19T04:53:13.618Z,2.33
2023-01-19T04:55:40.210Z,2.33
2023-01-19T04:58:06.567Z,2.32
2023-01-19T05:00:33.773Z,2.30
2023-01-19T05:03:01.484Z,2.27
2023-01-19T05:05:28.285Z,2.27
2023-01-19T05:07:54.894Z,2.27
2023-01-19T05:10:21.364Z,2.25
2023-01-19T05:12:47.832Z,2.25
2023-01-19T05:15:14.210Z,2.27
2023-01-19T05:17:40.700Z,2.30
2023-01-19T05:20:09.442Z,2.28
2023-01-19T05:22:35.826Z,2.26
2023-01-19T05:25:02.414Z,2.29
2023-01-19T05:27:28.774Z,2.29
2023-01-19T05:29:55.154Z,2.30
2023-01-19T05:32:21.508Z,2.30
2023-01-19T05:34:47.897Z,2.32
2023-01-19T05:37:14.302Z,2.32
2023-01-19T05:39:40.661Z,2.32
2023-01-19T05:42:07.254Z,2.33
2023-01-19T05:44:33.653Z,2.33
2023-01-19T05:47:00.136Z,2.33
2023-01-19T05:49:26.528Z,2.34
2023-01-19T05:51:52.879Z,2.34
2023-01-19T05:54:19.244Z,2.34
2023-01-19T05:56:45.755Z,2.40
2023-01-19T05:59:13.056Z,2.43
2023-01-19T06:01:40.331Z,2.48
2023-01-19T06:04:07.051Z,2.52
2023-01-19T06:06:33.416Z,2.54
2023-01-19T06:08:59.786Z,2.54
2023-01-19T06:11:26.244Z,2.52
2023-01-19T06:13:52.927Z,2.50
2023-01-19T06:16:19.482Z,2.50
2023-01-19T06:18:45.962Z,2.47
2023-01-19T06:21:14.238Z,2.45
2023-01-19T06:23:40.963Z,2.44
2023-01-19T06:26:07.443Z,2.44
2023-01-19T06:28:33.876Z,2.45
2023-01-19T06:31:01.036Z,2.48
2023-01-19T06:33:28.067Z,2.54
2023-01-19T06:35:55.165Z,2.56
2023-01-19T06:38:21.569Z,2.58
2023-01-19T06:40:58.900Z,2.62
2023-01-19T06:43:26.122Z,2.62
2023-01-19T06:45:52.761Z,2.65
2023-01-19T06:48:19.694Z,2.66
2023-01-19T06:50:46.884Z,2.68
2023-01-19T06:53:13.799Z,2.66
2023-01-19T06:55:40.256Z,2.69
2023-01-19T06:58:06.622Z,2.67
2023-01-19T07:00:32.986Z,2.65
2023-01-19T07:02:59.706Z,2.63
2023-01-19T07:05:26.483Z,2.60
2023-01-19T07:07:56.689Z,2.58
2023-01-19T07:10:24.574Z,2.57
2023-01-19T07:13:01.541Z,2.56
2023-01-19T07:15:53.146Z,2.53
2023-01-19T07:18:19.536Z,2.51
2023-01-19T07:20:46.905Z,2.48
2023-01-19T07:23:33.044Z,2.43
2023-01-19T07:26:05.063Z,2.35
2023-01-19T07:28:32.914Z,2.29
2023-01-19T07:31:08.949Z,2.27
2023-01-19T07:33:38.578Z,2.23
2023-01-19T07:36:05.266Z,2.19
2023-01-19T07:38:44.978Z,2.17
2023-01-19T07:41:13.835Z,2.16
2023-01-19T07:43:40.221Z,2.18
2023-01-19T07:46:17.804Z,2.20
2023-01-19T07:48:57.492Z,2.20
2023-01-19T07:51:23.860Z,2.23
2023-01-19T07:54:14.265Z,2.25
2023-01-19T07:56:40.726Z,2.28
2023-01-19T07:59:10.720Z,2.30
2023-01-19T08:01:37.781Z,2.28
2023-01-19T08:04:04.672Z,2.27
2023-01-19T08:06:37.138Z,2.24
2023-01-19T08:09:05.581Z,2.20
2023-01-19T08:11:32.130Z,2.12
2023-01-19T08:13:58.787Z,2.08
2023-01-19T08:16:25.487Z,2.08
2023-01-19T08:18:51.841Z,2.06
2023-01-19T08:21:18.224Z,2.02
2023-01-19T08:23:44.607Z,1.97
2023-01-19T08:26:36.338Z,1.97
2023-01-19T08:29:05.231Z,1.95
2023-01-19T08:31:31.775Z,1.95
2023-01-19T08:33:58.635Z,1.95
2023-01-19T08:36:25.171Z,1.97
2023-01-19T08:38:51.943Z,1.99
2023-01-19T08:41:18.342Z,2.01
2023-01-19T08:43:45.454Z,2.07
2023-01-19T08:46:12.322Z,2.12
2023-01-19T08:48:40.013Z,2.18
2023-01-19T08:51:06.521Z,2.25
2023-01-19T08:53:33.121Z,2.35
2023-01-19T08:56:02.490Z,2.39
2023-01-19T08:58:29.130Z,2.44
2023-01-19T09:00:56.071Z,2.62
2023-01-19T09:03:22.913Z,2.84
2023-01-19T09:05:50.393Z,3.01
2023-01-19T09:08:16.846Z,2.98
2023-01-19T09:10:48.311Z,2.90
2023-01-19T09:13:15.375Z,2.88
2023-01-19T09:15:51.231Z,2.88
2023-01-19T09:18:20.300Z,2.88
2023-01-19T09:20:48.704Z,2.91
2023-01-19T09:23:18.683Z,2.92
2023-01-19T09:25:47.237Z,2.92
2023-01-19T09:28:16.228Z,2.95
2023-01-19T09:30:51.596Z,3.00
2023-01-19T09:33:19.802Z,3.02
2023-01-19T09:35:48.304Z,3.02
2023-01-19T09:38:16.802Z,3.00
2023-01-19T09:40:54.472Z,3.01
2023-01-19T09:43:45.553Z,3.10
2023-01-19T09:46:21.630Z,3.16
2023-01-19T09:48:52.468Z,3.15
2023-01-19T09:51:32.353Z,3.15
2023-01-19T09:54:18.161Z,3.22
2023-01-19T09:56:51.991Z,3.30
2023-01-19T09:59:29.616Z,3.40
2023-01-19T10:02:31.814Z,3.53
2023-01-19T10:05:05.394Z,3.63
2023-01-19T10:08:09.616Z,3.72
2023-01-19T10:10:37.581Z,3.73
2023-01-19T10:13:29.005Z,3.73
2023-01-19T10:16:34.928Z,3.79
2023-01-19T10:19:25.697Z,4.10
2023-01-19T10:21:59.685Z,4.48
2023-01-19T10:24:33.258Z,4.86
2023-01-19T10:26:59.943Z,5.29
2023-01-19T10:29:38.609Z,5.72
2023-01-19T10:32:10.125Z,5.86
2023-01-19T10:34:36.754Z,6.27
2023-01-19T10:37:15.680Z,6.60
2023-01-19T10:39:42.711Z,6.10
2023-01-19T10:42:13.083Z,5.74
2023-01-19T10:44:39.638Z,6.03
2023-01-19T10:47:21.802Z,5.84
2023-01-19T10:49:48.920Z,5.45
2023-01-19T10:52:36.827Z,5.20
2023-01-19T10:55:07.059Z,5.12
2023-01-19T10:57:55.771Z,5.50
2023-01-19T11:00:37.834Z,6.39
2023-01-19T11:03:24.325Z,6.95
2023-01-19T11:06:27.394Z,8.52
2023-01-19T11:09:10.445Z,10.10
2023-01-19T11:11:43.701Z,10.77
2023-01-19T11:14:13.980Z,11.18
2023-01-19T11:16:44.931Z,9.96
2023-01-19T11:19:26.514Z,9.32
2023-01-19T11:22:07.424Z,10.16
2023-01-19T11:24:33.791Z,10.75
2023-01-19T11:27:03.599Z,11.47
2023-01-19T11:29:30.511Z,9.89
2023-01-19T11:32:10.275Z,8.35
2023-01-19T11:34:39.179Z,7.24
2023-01-19T11:37:27.448Z,6.44
2023-01-19T11:39:57.433Z,5.93
2023-01-19T11:42:25.318Z,5.57
2023-01-19T11:44:57.754Z,5.27
2023-01-19T11:47:34.102Z,5.08
2023-01-19T11:50:15.191Z,4.97
2023-01-19T11:53:00.145Z,4.86
2023-01-19T11:55:36.517Z,4.76
2023-01-19T11:58:04.584Z,4.66
2023-01-19T12:00:39.719Z,4.60
2023-01-19T12:03:23.109Z,4.53
2023-01-19T12:05:52.769Z,4.48
2023-01-19T12:08:27.031Z,4.45
2023-01-19T12:10:57.609Z,4.87
2023-01-19T12:13:26.307Z,5.20
2023-01-19T12:16:15.889Z,4.92
2023-01-19T12:18:47.423Z,4.72
2023-01-19T12:21:13.870Z,4.62
2023-01-19T12:24:18.029Z,4.87
2023-01-19T12:27:13.541Z,4.68
2023-01-19T12:29:41.294Z,4.46
2023-01-19T12:32:13.928Z,4.33
2023-01-19T12:34:47.852Z,4.21
2023-01-19T12:37:39.496Z,4.12
2023-01-19T12:40:27.808Z,4.01
2023-01-19T12:43:05.904Z,5.31
2023-01-19T12:45:34.771Z,6.40
2023-01-19T12:48:02.627Z,6.57
2023-01-19T12:50:36.001Z,6.89
2023-01-19T12:53:03.632Z,6.74
2023-01-19T12:55:33.251Z,6.45
2023-01-19T12:58:06.124Z,5.87
2023-01-19T13:00:41.694Z,5.74
2023-01-19T13:03:17.337Z,5.68
2023-01-19T13:05:43.689Z,6.09
2023-01-19T13:08:10.000Z,6.11
2023-01-19T13:11:10.524Z,5.95
2023-01-19T13:13:42.316Z,5.64
2023-01-19T13:16:17.933Z,5.58
2023-01-19T13:18:53.890Z,5.49
2023-01-19T13:21:30.083Z,5.77
2023-01-19T13:23:59.639Z,5.85
2023-01-19T13:26:32.750Z,6.28
2023-01-19T13:29:07.809Z,5.96
2023-01-19T13:31:36.517Z,5.68
2023-01-19T13:34:05.320Z,5.51
2023-01-19T13:36:35.364Z,5.38
2023-01-19T13:39:05.005Z,5.28
2023-01-19T13:41:37.860Z,5.20
2023-01-19T13:44:18.432Z,5.08
2023-01-19T13:46:46.675Z,4.99
2023-01-19T13:49:19.890Z,4.90
2023-01-19T13:51:47.885Z,4.84
2023-01-19T13:54:17.593Z,4.79
2023-01-19T13:56:50.191Z,4.75
2023-01-19T13:59:16.618Z,4.69
2023-01-19T14:01:45.804Z,4.64
2023-01-19T14:04:32.144Z,4.57
2023-01-19T14:07:02.674Z,4.47
2023-01-19T14:09:29.123Z,4.39
2023-01-19T14:12:17.512Z,4.34
2023-01-19T14:14:47.260Z,4.25
2023-01-19T14:17:26.288Z,4.19
2023-01-19T14:19:55.559Z,4.11
2023-01-19T14:22:36.461Z,4.09
2023-01-19T14:25:27.053Z,4.13
2023-01-19T14:28:36.000Z,4.12
2023-01-19T14:31:23.264Z,4.06
2023-01-19T14:33:52.882Z,4.01
2023-01-19T14:36:27.250Z,4.05
2023-01-19T14:38:56.282Z,4.19
2023-01-19T14:41:47.852Z,4.53
2023-01-19T14:44:31.809Z,4.67
2023-01-19T14:46:59.621Z,4.51
2023-01-19T14:49:31.501Z,4.40
2023-01-19T14:51:58.497Z,4.36
2023-01-19T14:54:31.632Z,4.24
2023-01-19T14:56:57.996Z,4.18
2023-01-19T14:59:24.707Z,4.12
2023-01-19T15:01:51.242Z,4.04
2023-01-19T15:04:17.797Z,3.98
2023-01-19T15:06:45.837Z,3.93
2023-01-19T15:09:13.880Z,3.82
2023-01-19T15:11:41.105Z,3.76
2023-01-19T15:14:13.259Z,3.72
2023-01-19T15:16:40.346Z,3.68
2023-01-19T15:19:15.857Z,3.62
2023-01-19T15:21:42.767Z,3.54
2023-01-19T15:24:10.596Z,3.51
2023-01-19T15:26:40.024Z,3.48
2023-01-19T15:29:20.054Z,3.43
2023-01-19T15:31:46.492Z,3.37
2023-01-19T15:34:13.474Z,3.33
2023-01-19T15:36:40.349Z,3.30
2023-01-19T15:39:06.722Z,3.29
2023-01-19T15:41:33.279Z,3.23
2023-01-19T15:43:59.659Z,3.16
2023-01-19T15:46:26.310Z,3.10
2023-01-19T15:48:53.505Z,3.05
2023-01-19T15:51:22.367Z,3.00
2023-01-19T15:53:49.602Z,2.93
2023-01-19T15:56:24.601Z,2.86
2023-01-19T15:58:52.150Z,2.80
2023-01-19T16:01:24.770Z,2.69
2023-01-19T16:03:51.332Z,2.60
2023-01-19T16:06:18.159Z,2.54
2023-01-19T16:08:45.173Z,2.46
2023-01-19T16:11:13.895Z,2.43
2023-01-19T16:13:40.292Z,2.39
2023-01-19T16:16:15.898Z,2.32
2023-01-19T16:18:42.306Z,2.27
2023-01-19T16:21:08.671Z,2.22
2023-01-19T16:23:35.058Z,2.15
2023-01-19T16:26:04.972Z,2.06
2023-01-19T16:28:31.655Z,1.97
2023-01-19T16:30:58.046Z,1.94
2023-01-19T16:33:24.401Z,1.88
2023-01-19T16:35:51.147Z,1.85
2023-01-19T16:38:17.655Z,1.78
2023-01-19T16:40:45.667Z,1.75
2023-01-19T16:43:13.155Z,1.73
2023-01-19T16:46:23.015Z,1.69
2023-01-19T16:48:50.839Z,1.64
2023-01-19T16:51:17.664Z,1.59
2023-01-19T16:53:44.095Z,1.56
2023-01-19T16:56:12.979Z,1.53
2023-01-19T16:58:40.406Z,1.51
2023-01-19T17:01:19.891Z,1.49
2023-01-19T17:03:46.805Z,1.46
2023-01-19T17:06:15.534Z,1.43
2023-01-19T17:08:41.988Z,1.41
2023-01-19T17:11:26.645Z,1.40
2023-01-19T17:13:55.377Z,1.40
2023-01-19T17:16:23.104Z,1.38
2023-01-19T17:18:49.979Z,1.35
2023-01-19T17:21:17.920Z,1.33
2023-01-19T17:23:45.825Z,1.33
2023-01-19T17:26:12.224Z,1.29
2023-01-19T17:28:38.723Z,1.26
2023-01-19T17:31:09.100Z,1.23
2023-01-19T17:33:35.580Z,1.22
2023-01-19T17:36:12.635Z,1.20
2023-01-19T17:38:39.800Z,1.16
2023-01-19T17:41:14.738Z,1.15
2023-01-19T17:43:50.307Z,1.13
2023-01-19T17:46:18.105Z,1.14
2023-01-19T17:48:44.913Z,1.13
2023-01-19T17:51:23.225Z,1.12
2023-01-19T17:53:50.868Z,1.11
2023-01-19T17:56:25.131Z,1.06
2023-01-19T17:58:59.195Z,1.02
2023-01-19T18:01:40.515Z,0.96
2023-01-19T18:04:11.161Z,0.94
2023-01-19T18:06:47.191Z,0.97
2023-01-19T18:09:32.072Z,0.94
2023-01-19T18:11:58.513Z,0.92
2023-01-19T18:14:30.029Z,0.92
2023-01-19T18:16:56.613Z,0.91
2023-01-19T18:19:40.483Z,0.92
2023-01-19T18:22:08.934Z,0.93
2023-01-19T18:24:35.373Z,0.92
2023-01-19T18:27:06.800Z,0.90
2023-01-19T18:29:33.208Z,0.92
2023-01-19T18:32:10.004Z,0.92
2023-01-19T18:34:37.587Z,0.97
2023-01-19T18:37:03.995Z,1.01
2023-01-19T18:39:32.559Z,1.08
2023-01-19T18:42:00.194Z,1.15
2023-01-19T18:44:28.633Z,1.18
2023-01-19T18:46:56.670Z,1.20
2023-01-19T18:49:23.125Z,1.23
2023-01-19T18:51:51.623Z,1.22
2023-01-19T18:54:18.245Z,1.17
2023-01-19T18:56:44.643Z,1.21
2023-01-19T18:59:11.041Z,1.25
2023-01-19T19:01:41.694Z,1.24
2023-01-19T19:04:08.409Z,1.20
2023-01-19T19:06:41.820Z,1.18
2023-01-19T19:09:08.978Z,1.18
2023-01-19T19:11:35.624Z,1.19
2023-01-19T19:14:02.627Z,1.22
2023-01-19T19:16:30.190Z,1.24
2023-01-19T19:18:56.838Z,1.27
2023-01-19T19:21:25.428Z,1.26
2023-01-19T19:23:57.278Z,1.28
2023-01-19T19:26:25.055Z,1.31
2023-01-19T19:28:51.406Z,1.35
2023-01-19T19:31:20.750Z,1.35
2023-01-19T19:33:48.528Z,1.41
2023-01-19T19:36:15.015Z,1.42
2023-01-19T19:38:42.838Z,1.44
2023-01-19T19:41:12.254Z,1.46
2023-01-19T19:43:39.006Z,1.51
2023-01-19T19:46:08.131Z,1.53
2023-01-19T19:48:36.694Z,1.56
2023-01-19T19:51:18.581Z,1.59
2023-01-19T19:53:51.783Z,1.61
2023-01-19T19:56:21.102Z,1.65
2023-01-19T19:58:48.248Z,1.67
2023-01-19T20:01:19.252Z,1.67
2023-01-19T20:03:46.171Z,1.69
2023-01-19T20:06:20.828Z,1.68
2023-01-19T20:08:51.499Z,1.68
2023-01-19T20:11:21.598Z,1.65
2023-01-19T20:13:47.936Z,1.66
2023-01-19T20:16:16.852Z,1.62
2023-01-19T20:18:48.389Z,1.62
2023-01-19T20:21:38.102Z,1.60
2023-01-19T20:24:12.679Z,1.60
2023-01-19T20:26:42.085Z,1.62
2023-01-19T20:29:10.636Z,1.62
2023-01-19T20:31:41.940Z,1.61
2023-01-19T20:34:10.505Z,1.61
2023-01-19T20:36:37.937Z,1.62
2023-01-19T20:39:09.523Z,1.63
2023-01-19T20:41:43.136Z,1.61
2023-01-19T20:44:11.384Z,1.59
2023-01-19T20:46:37.757Z,1.55
2023-01-19T20:49:04.590Z,1.53
2023-01-19T20:51:30.989Z,1.51
2023-01-19T20:53:57.355Z,1.51
2023-01-19T20:56:23.855Z,1.53
2023-01-19T20:58:51.247Z,1.55
2023-01-19T21:01:24.929Z,1.54
2023-01-19T21:03:51.820Z,1.52
2023-01-19T21:06:21.280Z,1.53
2023-01-19T21:08:51.243Z,1.52
2023-01-19T21:11:23.837Z,1.50
2023-01-19T21:13:55.588Z,1.50
2023-01-19T21:16:34.267Z,1.47
2023-01-19T21:19:00.637Z,1.49
2023-01-19T21:21:31.734Z,1.45
2023-01-19T21:24:02.541Z,1.44
2023-01-19T21:26:33.217Z,1.44
2023-01-19T21:29:14.679Z,1.42
2023-01-19T21:31:42.015Z,1.43
2023-01-19T21:34:09.132Z,1.41
2023-01-19T21:36:35.539Z,1.41
2023-01-19T21:39:01.951Z,1.42
2023-01-19T21:41:30.021Z,1.40
2023-01-19T21:43:56.544Z,1.38
2023-01-19T21:46:29.432Z,1.34
2023-01-19T21:48:57.925Z,1.30
2023-01-19T21:51:24.338Z,1.29
2023-01-19T21:53:55.992Z,1.28
2023-01-19T21:56:22.984Z,1.27
2023-01-19T21:58:49.321Z,1.24
2023-01-19T22:01:16.010Z,1.21
2023-01-19T22:03:42.866Z,1.20
2023-01-19T22:06:12.012Z,1.18
2023-01-19T22:08:46.505Z,1.17
2023-01-19T22:11:15.655Z,1.16
2023-01-19T22:13:46.678Z,1.14
2023-01-19T22:16:15.772Z,1.11
2023-01-19T22:18:44.848Z,1.08
2023-01-19T22:21:20.084Z,1.08
2023-01-19T22:23:49.942Z,1.05
2023-01-19T22:26:16.550Z,1.00
2023-01-19T22:29:11.863Z,1.03
2023-01-19T22:31:45.676Z,1.08
2023-01-19T22:34:13.451Z,1.07
2023-01-19T22:36:39.883Z,1.09
2023-01-19T22:39:08.792Z,1.10
2023-01-19T22:41:44.812Z,1.07
2023-01-19T22:44:14.916Z,1.09
2023-01-19T22:46:41.973Z,1.08
2023-01-19T22:49:10.473Z,1.11
2023-01-19T22:51:36.889Z,1.10
2023-01-19T22:54:23.084Z,1.12
2023-01-19T22:56:49.625Z,1.13
2023-01-19T22:59:15.985Z,1.11
2023-01-19T23:01:49.258Z,1.08
2023-01-19T23:04:15.941Z,1.10
2023-01-19T23:06:51.672Z,1.10
2023-01-19T23:09:18.588Z,1.10
2023-01-19T23:11:51.113Z,1.11
2023-01-19T23:14:46.212Z,1.11
2023-01-19T23:17:12.706Z,1.12
2023-01-19T23:19:51.450Z,1.10
2023-01-19T23:22:17.807Z,1.09
2023-01-19T23:24:45.192Z,1.09
2023-01-19T23:27:11.935Z,1.07
2023-01-19T23:29:38.294Z,1.06
2023-01-19T23:32:13.050Z,1.07
2023-01-19T23:34:41.498Z,1.06
2023-01-19T23:37:26.345Z,1.07
2023-01-19T23:40:00.960Z,1.09
2023-01-19T23:42:27.420Z,1.08
2023-01-19T23:45:00.966Z,1.03
2023-01-19T23:47:30.953Z,1.05
2023-01-19T23:50:00.467Z,1.02
2023-01-19T23:52:30.482Z,1.00
2023-01-19T23:54:57.125Z,0.96
2023-01-19T23:57:23.815Z,0.95
